Terminal Aerodrome Forecast
Issued by NWS Jackson, MS

Current Version | Previous Version | Text Only | Print | Product List | Glossary On
Versions: 1 2 3 4 5 6 7 8 9 10 11 12
985
FTUS44 KJAN 072344
TAFMEI
TAF
KMEI 072344Z 0800/0824 22004KT P6SM FEW200
     FM081200 28008G16KT P6SM FEW050 SCT200
     FM081600 30014G23KT P6SM SCT030 BKN050=

USA.gov is the U.S. government's official web portal to all federal, state and local government web resources and services.